Archival Weather

Chicago O'Hare International

Chicago, Illinois (KORD)

Report from: Tuesday, December 27, 2022 6:51 PM CST
Current time: Saturday, June 22, 2024 5:00 AM CDT

Current weather – Weather history – Daily summaries
Weather forecast

Temperature-5.0°C (23.0°F)
Wind chill-12.7°C (9.2°F)
Dew point-8.3°C (17.1°F)
Winds 15 kts (7.7 m/s, 17.3 mph) South (190°)
Wind gusts 25 kts (12.9 m/s, 28.8 mph)
Peak wind 27 kts (13.9 m/s, 31.1 mph) South (180°) at 00:28
Visibility10 mi. (16.1 km)
Clouds Scattered clouds 1,300 ft. (396 m)
Ceiling: Broken clouds 25,000 ft. (7,620 m)
Altimeter29.94 in.Hg (1014 mB)
Relative humidity78 %
Density altitude-2,475 ft. (-754 m)
Sea-level pressure101.5 kPa (1015 mB, 29.97 in.Hg)
Remarks Automated weather observing station with precipitation discriminator
Flight conditions Visual Meteorological Conditions
Raw dataKORD 280051Z 19015G25KT 10SM SCT013 BKN250 M05/M08 A2994 RMK AO2 PK WND 18027/0028 SLP149 T10501083
An error has occurred. This application may no longer respond until reloaded. Reload 🗙